createdAt,value
2023-04-02T00:00:29.664Z,8.40
2023-04-02T00:03:01.955Z,8.30
2023-04-02T00:05:51.543Z,8.20
2023-04-02T00:08:23.927Z,8.30
2023-04-02T00:10:55.894Z,8.30
2023-04-02T00:13:31.154Z,8.40
2023-04-02T00:16:00.453Z,8.20
2023-04-02T00:18:30.881Z,8.30
2023-04-02T00:21:12.576Z,8.30
2023-04-02T00:23:42.658Z,8.30
2023-04-02T00:26:26.874Z,8.20
2023-04-02T00:28:55.599Z,8.10
2023-04-02T00:31:24.525Z,8.10
2023-04-02T00:33:53.964Z,8.10
2023-04-02T00:36:26.692Z,8.10
2023-04-02T00:38:58.233Z,8.00
2023-04-02T00:41:32.135Z,8.10
2023-04-02T00:44:01.652Z,8.10
2023-04-02T00:46:32.777Z,8.00
2023-04-02T00:49:09.248Z,7.90
2023-04-02T00:51:42.500Z,7.90
2023-04-02T00:54:16.178Z,7.90
2023-04-02T00:56:48.429Z,7.90
2023-04-02T00:59:26.114Z,7.90
2023-04-02T01:02:02.036Z,8.00
2023-04-02T01:04:35.212Z,8.10
2023-04-02T01:07:08.834Z,8.10
2023-04-02T01:09:56.151Z,8.10
2023-04-02T01:12:51.941Z,8.00
2023-04-02T01:15:26.923Z,7.90
2023-04-02T01:18:21.518Z,7.90
2023-04-02T01:21:09.530Z,7.80
2023-04-02T01:23:54.741Z,8.00
2023-04-02T01:26:41.430Z,7.80
2023-04-02T01:29:22.737Z,7.70
2023-04-02T01:32:04.464Z,7.80
2023-04-02T01:38:10.204Z,7.60
2023-04-02T01:47:57.673Z,7.70
2023-04-02T01:50:32.279Z,7.70
2023-04-02T01:53:03.834Z,7.70
2023-04-02T01:55:39.923Z,7.70
2023-04-02T01:58:10.159Z,7.80
2023-04-02T02:00:42.926Z,7.70
2023-04-02T02:03:14.908Z,7.70
2023-04-02T02:05:43.689Z,7.60
2023-04-02T02:08:32.612Z,7.70
2023-04-02T02:11:01.503Z,7.60
2023-04-02T02:13:29.719Z,7.60
2023-04-02T02:15:59.932Z,7.60
2023-04-02T02:18:31.112Z,7.50
2023-04-02T02:21:01.274Z,7.50
2023-04-02T02:23:31.063Z,7.50
2023-04-02T02:26:00.028Z,7.40
2023-04-02T02:28:32.298Z,7.40
2023-04-02T02:31:04.424Z,7.80
2023-04-02T02:33:39.080Z,7.30
2023-04-02T02:36:15.430Z,7.70
2023-04-02T02:38:50.578Z,7.30
2023-04-02T02:41:24.715Z,7.20
2023-04-02T02:44:00.475Z,7.50
2023-04-02T02:46:30.608Z,7.30
2023-04-02T02:49:04.280Z,7.60
2023-04-02T02:51:43.530Z,7.30
2023-04-02T02:54:12.103Z,7.30
2023-04-02T02:56:43.993Z,7.50
2023-04-02T02:59:13.894Z,7.30
2023-04-02T03:01:42.945Z,7.20
2023-04-02T03:04:13.266Z,7.20
2023-04-02T03:06:43.155Z,7.20
2023-04-02T03:09:19.869Z,7.20
2023-04-02T03:11:55.691Z,7.20
2023-04-02T03:14:30.483Z,7.30
2023-04-02T03:17:07.470Z,7.20
2023-04-02T03:19:43.914Z,7.10
2023-04-02T03:22:17.537Z,7.20
2023-04-02T03:24:55.111Z,7.30
2023-04-02T03:27:27.590Z,7.10
2023-04-02T03:30:05.322Z,7.00
2023-04-02T03:32:38.883Z,7.00
2023-04-02T03:35:20.897Z,7.10
2023-04-02T03:37:56.007Z,7.00
2023-04-02T03:40:29.360Z,7.00
2023-04-02T03:43:04.417Z,6.90
2023-04-02T03:45:37.635Z,6.80
2023-04-02T03:48:09.818Z,6.80
2023-04-02T03:50:45.301Z,6.70
2023-04-02T03:53:13.869Z,6.70
2023-04-02T03:55:45.514Z,6.70
2023-04-02T03:58:18.437Z,6.80
2023-04-02T04:00:50.650Z,6.80
2023-04-02T04:03:22.511Z,6.80
2023-04-02T04:05:56.006Z,6.70
2023-04-02T04:08:28.740Z,7.10
2023-04-02T04:11:00.464Z,6.80
2023-04-02T04:13:36.067Z,6.90
2023-04-02T04:16:08.029Z,6.80
2023-04-02T04:18:44.157Z,6.70
2023-04-02T04:21:30.969Z,6.70
2023-04-02T04:24:04.587Z,6.70
2023-04-02T04:26:42.411Z,6.80
2023-04-02T04:29:27.339Z,6.70
2023-04-02T04:31:56.898Z,6.60
2023-04-02T04:34:31.447Z,6.60
2023-04-02T04:37:07.954Z,6.50
2023-04-02T04:39:43.528Z,6.80
2023-04-02T04:42:18.446Z,6.50
2023-04-02T04:44:52.804Z,6.50
2023-04-02T04:47:28.059Z,6.40
2023-04-02T04:50:02.500Z,6.40
2023-04-02T04:52:37.491Z,6.30
2023-04-02T04:55:29.680Z,6.40
2023-04-02T04:58:03.566Z,6.50
2023-04-02T05:00:49.974Z,6.50
2023-04-02T05:03:27.604Z,6.10
2023-04-02T05:06:08.400Z,6.00
2023-04-02T05:08:43.560Z,6.00
2023-04-02T05:11:16.981Z,6.00
2023-04-02T05:13:51.441Z,6.10
2023-04-02T05:16:27.690Z,6.30
2023-04-02T05:19:01.412Z,6.00
2023-04-02T05:21:40.028Z,5.80
2023-04-02T05:24:34.450Z,5.80
2023-04-02T05:27:07.736Z,5.90
2023-04-02T05:29:40.190Z,6.00
2023-04-02T05:32:16.875Z,5.80
2023-04-02T05:34:49.350Z,6.30
2023-04-02T05:37:19.055Z,5.90
2023-04-02T05:39:54.809Z,6.70
2023-04-02T05:42:26.640Z,6.00
2023-04-02T05:45:06.337Z,7.20
2023-04-02T05:47:40.917Z,6.10
2023-04-02T05:50:30.511Z,5.90
2023-04-02T05:53:07.730Z,5.80
2023-04-02T05:55:51.730Z,5.70
2023-04-02T06:01:18.334Z,6.00
2023-04-02T06:03:56.506Z,5.60
2023-04-02T06:06:51.062Z,5.60
2023-04-02T06:09:24.109Z,5.50
2023-04-02T06:12:00.224Z,5.60
2023-04-02T06:14:28.309Z,5.70
2023-04-02T06:16:56.563Z,5.60
2023-04-02T06:19:30.617Z,5.70
2023-04-02T06:22:08.568Z,5.40
2023-04-02T06:24:39.859Z,5.30
2023-04-02T06:27:15.217Z,5.30
2023-04-02T06:29:47.292Z,5.20
2023-04-02T06:32:15.768Z,5.20
2023-04-02T06:34:44.261Z,5.10
2023-04-02T06:37:21.005Z,5.20
2023-04-02T06:39:49.295Z,5.00
2023-04-02T06:42:22.394Z,4.60
2023-04-02T06:44:50.933Z,4.80
2023-04-02T06:47:29.986Z,5.10
2023-04-02T06:50:05.274Z,4.80
2023-04-02T06:52:41.237Z,4.80
2023-04-02T06:55:30.044Z,4.70
2023-04-02T06:58:00.024Z,4.60
2023-04-02T07:00:36.042Z,4.70
2023-04-02T07:03:07.488Z,5.30
2023-04-02T07:05:36.299Z,4.70
2023-04-02T07:08:05.081Z,4.80
2023-04-02T07:10:33.205Z,4.50
2023-04-02T07:13:02.997Z,4.50
2023-04-02T07:15:31.313Z,4.50
2023-04-02T07:18:00.739Z,4.70
2023-04-02T07:20:31.698Z,4.50
2023-04-02T07:22:59.858Z,4.50
2023-04-02T07:25:28.685Z,4.60
2023-04-02T07:27:57.262Z,4.50
2023-04-02T07:30:26.980Z,4.70
2023-04-02T07:32:55.319Z,4.40
2023-04-02T07:35:23.847Z,4.40
2023-04-02T07:37:52.965Z,4.30
2023-04-02T07:40:24.388Z,4.30
2023-04-02T07:42:52.786Z,4.30
2023-04-02T07:45:21.130Z,4.40
2023-04-02T07:47:50.664Z,4.20
2023-04-02T07:50:19.899Z,4.30
2023-04-02T07:52:47.988Z,4.30
2023-04-02T07:55:17.349Z,4.40
2023-04-02T07:57:50.279Z,4.30
2023-04-02T08:00:19.484Z,4.20
2023-04-02T08:02:48.486Z,4.40
2023-04-02T08:05:18.697Z,4.60
2023-04-02T08:07:53.844Z,4.50
2023-04-02T08:10:21.870Z,5.30
2023-04-02T08:12:50.224Z,4.50
2023-04-02T08:15:18.686Z,4.50
2023-04-02T08:17:48.104Z,4.80
2023-04-02T08:20:20.030Z,4.70
2023-04-02T08:22:48.857Z,4.80
2023-04-02T08:25:18.067Z,5.10
2023-04-02T08:27:48.507Z,4.80
2023-04-02T08:30:18.411Z,5.00
2023-04-02T08:32:46.682Z,5.40
2023-04-02T08:35:17.460Z,4.40
2023-04-02T08:37:45.587Z,6.00
2023-04-02T08:40:23.600Z,4.80
2023-04-02T08:43:16.030Z,4.70
2023-04-02T08:45:57.169Z,4.70
2023-04-02T08:48:25.817Z,4.50
2023-04-02T08:50:57.396Z,4.70
2023-04-02T08:53:31.144Z,4.70
2023-04-02T08:56:05.887Z,4.60
2023-04-02T08:58:42.946Z,4.50
2023-04-02T09:01:22.654Z,4.40
2023-04-02T09:03:55.116Z,4.40
2023-04-02T09:06:26.096Z,4.50
2023-04-02T09:08:56.098Z,4.70
2023-04-02T09:11:26.598Z,4.70
2023-04-02T09:13:58.468Z,4.60
2023-04-02T09:16:39.156Z,4.70
2023-04-02T09:19:19.501Z,4.70
2023-04-02T09:22:04.161Z,4.60
2023-04-02T09:24:32.367Z,4.90
2023-04-02T09:27:00.564Z,5.10
2023-04-02T09:29:44.349Z,5.20
2023-04-02T09:32:33.783Z,4.90
2023-04-02T09:35:24.570Z,5.00
2023-04-02T09:38:21.120Z,4.70
2023-04-02T09:40:52.039Z,4.80
2023-04-02T09:43:22.345Z,5.00
2023-04-02T09:45:59.701Z,5.40
2023-04-02T09:48:31.674Z,5.20
2023-04-02T09:51:14.606Z,5.30
2023-04-02T09:53:47.348Z,5.50
2023-04-02T09:56:18.397Z,5.60
2023-04-02T09:59:02.705Z,5.60
2023-04-02T10:01:33.976Z,5.70
2023-04-02T10:04:04.917Z,5.90
2023-04-02T10:06:35.947Z,5.70
2023-04-02T10:09:29.855Z,5.80
2023-04-02T10:12:00.176Z,6.00
2023-04-02T10:14:32.414Z,6.30
2023-04-02T10:17:08.958Z,5.90
2023-04-02T10:19:39.979Z,5.90
2023-04-02T10:22:14.312Z,6.00
2023-04-02T10:24:44.080Z,6.20
2023-04-02T10:27:22.659Z,6.20
2023-04-02T10:30:13.481Z,6.20
2023-04-02T10:32:46.303Z,6.40
2023-04-02T10:35:24.560Z,6.40
2023-04-02T10:38:20.711Z,6.60
2023-04-02T10:40:59.344Z,6.90
2023-04-02T10:43:42.297Z,6.80
2023-04-02T10:46:17.287Z,6.90
2023-04-02T10:48:53.652Z,7.10
2023-04-02T10:51:30.922Z,7.10
2023-04-02T10:54:07.293Z,7.10
2023-04-02T10:56:50.092Z,7.10
2023-04-02T10:59:22.733Z,7.00
2023-04-02T11:01:52.253Z,7.20
2023-04-02T11:04:24.474Z,7.40
2023-04-02T11:07:03.875Z,7.70
2023-04-02T11:09:41.952Z,7.70
2023-04-02T11:12:21.083Z,7.70
2023-04-02T11:14:50.673Z,7.60
2023-04-02T11:17:19.821Z,7.80
2023-04-02T11:19:48.040Z,8.10
2023-04-02T11:22:17.396Z,8.10
2023-04-02T11:24:47.521Z,8.40
2023-04-02T11:27:29.074Z,8.40
2023-04-02T11:30:07.173Z,8.60
2023-04-02T11:32:39.552Z,8.30
2023-04-02T11:35:27.746Z,8.40
2023-04-02T11:37:57.862Z,8.40
2023-04-02T11:40:52.161Z,8.50
2023-04-02T11:43:53.781Z,8.70
2023-04-02T11:46:46.699Z,8.90
2023-04-02T11:49:40.900Z,9.00
2023-04-02T11:52:24.064Z,9.10
2023-04-02T11:55:05.435Z,9.00
2023-04-02T11:57:51.721Z,9.10
2023-04-02T12:00:34.541Z,9.00
2023-04-02T12:03:22.790Z,9.00
2023-04-02T12:06:03.682Z,9.00
2023-04-02T12:08:56.711Z,9.00
2023-04-02T12:11:37.814Z,9.10
2023-04-02T12:14:24.540Z,9.10
2023-04-02T12:16:54.829Z,9.00
2023-04-02T12:19:24.307Z,9.10
2023-04-02T12:21:54.407Z,9.20
2023-04-02T12:24:25.134Z,9.20
2023-04-02T12:27:15.734Z,9.10
2023-04-02T12:29:44.266Z,9.20
2023-04-02T12:32:24.647Z,9.20
2023-04-02T12:34:57.604Z,9.40
2023-04-02T12:37:27.683Z,9.40
2023-04-02T12:39:58.528Z,9.70
2023-04-02T12:42:28.547Z,9.80
2023-04-02T12:44:56.520Z,9.80
2023-04-02T12:47:27.510Z,9.90
2023-04-02T12:49:57.729Z,9.90
2023-04-02T12:52:29.248Z,9.80
2023-04-02T12:54:59.570Z,9.90
2023-04-02T12:57:36.443Z,9.90
2023-04-02T13:00:33.274Z,9.90
2023-04-02T13:03:16.578Z,9.90
2023-04-02T13:05:49.140Z,9.90
2023-04-02T13:08:19.975Z,9.80
2023-04-02T13:10:54.258Z,9.70
2023-04-02T13:13:28.603Z,9.90
2023-04-02T13:16:06.566Z,10.10
2023-04-02T13:18:38.160Z,10.10
2023-04-02T13:21:07.574Z,10.20
2023-04-02T13:23:37.831Z,10.50
2023-04-02T13:26:17.504Z,10.40
2023-04-02T13:28:56.481Z,10.30
2023-04-02T13:31:24.906Z,10.30
2023-04-02T13:33:54.720Z,10.20
2023-04-02T13:36:23.176Z,10.30
2023-04-02T13:38:51.332Z,10.40
2023-04-02T13:41:22.672Z,10.40
2023-04-02T13:43:51.358Z,10.30
2023-04-02T13:46:23.305Z,10.40
2023-04-02T13:48:52.383Z,10.50
2023-04-02T13:51:24.486Z,10.40
2023-04-02T13:53:56.130Z,10.20
2023-04-02T13:56:25.456Z,10.30
2023-04-02T13:58:54.521Z,10.50
2023-04-02T14:01:25.763Z,10.40
2023-04-02T14:03:56.871Z,10.60
2023-04-02T14:06:39.758Z,10.70
2023-04-02T14:09:17.987Z,10.70
2023-04-02T14:11:55.884Z,10.70
2023-04-02T14:14:49.329Z,10.70
2023-04-02T14:17:26.375Z,10.50
2023-04-02T14:20:09.164Z,10.50
2023-04-02T14:22:50.736Z,10.70
2023-04-02T14:25:27.407Z,10.70
2023-04-02T14:28:02.127Z,10.70
2023-04-02T14:30:40.405Z,10.80
2023-04-02T14:33:15.885Z,11.10
2023-04-02T14:35:47.109Z,10.90
2023-04-02T14:38:21.094Z,10.90
2023-04-02T14:40:51.695Z,11.10
2023-04-02T14:43:24.770Z,11.10
2023-04-02T14:46:02.251Z,11.30
2023-04-02T14:48:47.564Z,11.30
2023-04-02T14:51:26.371Z,11.40
2023-04-02T14:54:04.722Z,11.40
2023-04-02T14:56:39.226Z,11.20
2023-04-02T14:59:26.718Z,11.20
2023-04-02T15:01:58.321Z,11.20
2023-04-02T15:04:32.171Z,11.10
2023-04-02T15:07:06.505Z,11.20
2023-04-02T15:09:43.133Z,11.30
2023-04-02T15:12:18.386Z,11.30
2023-04-02T15:14:48.764Z,11.40
2023-04-02T15:17:17.143Z,11.40
2023-04-02T15:19:45.295Z,11.30
2023-04-02T15:22:30.830Z,11.20
2023-04-02T15:25:11.582Z,11.30
2023-04-02T15:28:02.241Z,11.40
2023-04-02T15:30:35.944Z,11.70
2023-04-02T15:33:37.321Z,11.60
2023-04-02T15:36:26.907Z,11.70
2023-04-02T15:39:03.334Z,11.60
2023-04-02T15:41:38.184Z,11.70
2023-04-02T15:44:11.245Z,11.60
2023-04-02T15:46:51.070Z,11.50
2023-04-02T15:49:37.815Z,11.50
2023-04-02T15:52:12.364Z,11.60
2023-04-02T15:55:00.940Z,11.70
2023-04-02T15:57:58.107Z,12.00
2023-04-02T16:03:52.556Z,12.10
2023-04-02T16:06:39.417Z,12.20
2023-04-02T16:09:24.273Z,12.30
2023-04-02T16:11:59.958Z,12.50
2023-04-02T16:14:40.792Z,12.60
2023-04-02T16:17:25.308Z,12.40
2023-04-02T16:20:06.847Z,12.20
2023-04-02T16:23:00.425Z,12.40
2023-04-02T16:25:34.995Z,12.50
2023-04-02T16:28:27.462Z,12.50
2023-04-02T16:31:04.540Z,12.60
2023-04-02T16:33:56.042Z,12.50
2023-04-02T16:36:36.250Z,12.40
2023-04-02T16:39:14.533Z,12.30
2023-04-02T16:41:56.958Z,12.20
2023-04-02T16:44:35.785Z,12.20
2023-04-02T16:47:21.840Z,12.20
2023-04-02T16:50:03.337Z,12.10
2023-04-02T16:52:50.111Z,12.10
2023-04-02T16:55:39.468Z,12.00
2023-04-02T16:58:23.620Z,11.80
2023-04-02T17:00:56.715Z,11.90
2023-04-02T17:04:16.104Z,11.70
2023-04-02T17:13:26.645Z,11.50
2023-04-02T17:16:30.961Z,11.50
2023-04-02T17:22:28.071Z,11.60
2023-04-02T17:28:14.523Z,11.40
2023-04-02T17:30:49.445Z,11.30
2023-04-02T17:33:59.254Z,11.30
2023-04-02T17:37:17.885Z,11.30
2023-04-02T17:40:26.398Z,11.20
2023-04-02T17:43:27.392Z,11.20
2023-04-02T17:53:26.259Z,11.00
2023-04-02T17:56:19.416Z,10.80
2023-04-02T17:59:36.926Z,10.70
2023-04-02T18:02:34.565Z,10.60
2023-04-02T18:05:36.919Z,10.40
2023-04-02T18:08:33.491Z,10.60
2023-04-02T18:11:12.446Z,10.40
2023-04-02T18:13:45.895Z,10.20
2023-04-02T18:16:57.141Z,10.20
2023-04-02T18:19:44.452Z,10.20
2023-04-02T18:22:30.054Z,10.10
2023-04-02T18:25:16.887Z,10.10
2023-04-02T18:28:20.268Z,10.00
2023-04-02T18:30:56.316Z,9.90
2023-04-02T18:34:04.827Z,10.00
2023-04-02T18:36:45.869Z,9.80
2023-04-02T18:39:28.422Z,9.70
2023-04-02T18:42:10.332Z,9.70
2023-04-02T18:45:00.973Z,9.70
2023-04-02T18:47:42.622Z,9.70
2023-04-02T18:51:28.541Z,9.60
2023-04-02T18:54:30.931Z,9.60
2023-04-02T19:00:23.997Z,9.50
2023-04-02T19:06:47.838Z,9.40
2023-04-02T19:09:51.571Z,9.30
2023-04-02T19:13:04.655Z,9.30
2023-04-02T19:15:46.350Z,9.20
2023-04-02T19:18:24.101Z,9.20
2023-04-02T19:20:58.141Z,9.10
2023-04-02T19:23:38.564Z,9.10
2023-04-02T19:26:09.957Z,9.10
2023-04-02T19:28:47.211Z,9.00
2023-04-02T19:31:41.655Z,9.00
2023-04-02T19:34:19.780Z,9.00
2023-04-02T19:36:51.497Z,8.90
2023-04-02T19:39:46.826Z,8.90
2023-04-02T19:42:30.798Z,8.80
2023-04-02T19:44:59.086Z,8.80
2023-04-02T19:47:28.962Z,8.70
2023-04-02T19:49:57.408Z,8.70
2023-04-02T19:52:25.564Z,8.80
2023-04-02T19:54:53.812Z,8.60
2023-04-02T19:57:21.920Z,8.60
2023-04-02T19:59:50.162Z,8.60
2023-04-02T20:02:18.454Z,8.60
2023-04-02T20:04:48.151Z,8.60
2023-04-02T20:07:16.869Z,8.60
2023-04-02T20:09:45.000Z,8.50
2023-04-02T20:12:13.203Z,8.40
2023-04-02T20:14:41.421Z,8.50
2023-04-02T20:17:09.435Z,8.40
2023-04-02T20:19:37.761Z,8.40
2023-04-02T20:22:08.594Z,8.30
2023-04-02T20:24:37.010Z,8.30
2023-04-02T23:38:59.753Z,6.10
2023-04-02T23:41:28.925Z,6.10
2023-04-02T23:43:58.642Z,6.10
2023-04-02T23:46:27.740Z,6.00
2023-04-02T23:48:56.700Z,6.00
2023-04-02T23:51:26.680Z,6.00
2023-04-02T23:53:57.349Z,6.00
2023-04-02T23:56:25.934Z,6.00
2023-04-02T23:58:54.467Z,5.90
